createdAt,value
2018-10-01T00:00:04.898Z,101024.98
2018-10-01T00:02:36.192Z,101031.70
2018-10-01T00:05:07.172Z,101030.68
2018-10-01T00:07:37.156Z,101030.71
2018-10-01T00:10:07.411Z,101033.12
2018-10-01T00:12:38.674Z,101025.64
2018-10-01T00:15:09.364Z,101027.84
2018-10-01T00:17:40.196Z,101034.16
2018-10-01T00:20:15.936Z,101026.10
2018-10-01T00:22:49.474Z,101032.39
2018-10-01T00:25:19.858Z,101028.27
2018-10-01T00:27:50.351Z,101032.39
2018-10-01T00:30:21.633Z,101036.08
2018-10-01T00:32:54.314Z,101034.81
2018-10-01T00:35:24.198Z,101034.23
2018-10-01T00:37:55.786Z,101034.31
2018-10-01T00:40:26.870Z,101034.66
2018-10-01T00:42:58.185Z,101035.55
2018-10-01T00:45:28.346Z,101031.62
2018-10-01T00:48:00.178Z,101038.52
2018-10-01T00:50:32.215Z,101036.31
2018-10-01T00:53:02.773Z,101034.39
2018-10-01T00:55:34.112Z,101032.88
2018-10-01T00:58:04.632Z,101024.69
2018-10-01T01:00:35.149Z,101025.85
2018-10-01T01:03:05.470Z,101017.47
2018-10-01T01:05:35.583Z,101020.05
2018-10-01T01:08:06.428Z,101025.09
2018-10-01T01:10:36.659Z,101018.81
2018-10-01T01:13:07.916Z,101018.19
2018-10-01T01:15:38.323Z,101020.14
2018-10-01T01:18:08.447Z,101015.45
2018-10-01T01:20:38.972Z,101026.19
2018-10-01T01:23:10.030Z,101018.62
2018-10-01T01:25:41.671Z,101020.47
2018-10-01T01:28:12.447Z,101009.92
2018-10-01T01:30:42.990Z,101012.66
2018-10-01T01:33:14.506Z,101006.78
2018-10-01T01:35:44.730Z,101005.69
2018-10-01T01:38:16.098Z,101007.05
2018-10-01T01:40:46.692Z,101002.49
2018-10-01T01:43:17.022Z,100995.33
2018-10-01T01:45:47.512Z,100999.77
2018-10-01T01:48:17.559Z,100991.18
2018-10-01T01:53:36.645Z,100993.81
2018-10-01T01:56:06.857Z,100993.23
2018-10-01T01:58:37.054Z,101001.29
2018-10-01T02:01:07.307Z,100995.48
2018-10-01T02:03:37.806Z,100993.66
2018-10-01T02:06:08.156Z,100992.13
2018-10-01T02:08:39.514Z,100992.56
2018-10-01T02:11:09.660Z,100994.84
2018-10-01T02:13:39.343Z,101001.73
2018-10-01T02:16:09.971Z,100997.67
2018-10-01T02:18:40.565Z,100993.28
2018-10-01T02:21:10.992Z,100993.77
2018-10-01T02:23:40.967Z,100995.55
2018-10-01T02:26:13.064Z,100999.25
2018-10-01T02:28:43.234Z,100999.91
2018-10-01T02:31:14.451Z,101005.91
2018-10-01T02:33:44.843Z,101004.22
2018-10-01T02:36:15.847Z,101004.23
2018-10-01T02:38:45.903Z,101006.92
2018-10-01T02:41:15.876Z,100995.18
2018-10-01T02:43:46.064Z,100999.75
2018-10-01T02:46:16.430Z,100996.64
2018-10-01T02:48:46.181Z,100999.04
2018-10-01T02:51:16.200Z,100999.20
2018-10-01T02:53:51.455Z,100991.16
2018-10-01T02:56:21.677Z,100981.97
2018-10-01T02:58:52.602Z,100985.81
2018-10-01T03:01:22.967Z,100991.92
2018-10-01T03:03:53.154Z,100982.69
2018-10-01T03:06:24.125Z,100987.53
2018-10-01T03:08:56.851Z,100991.55
2018-10-01T03:11:28.159Z,100992.48
2018-10-01T03:13:58.481Z,100985.56
2018-10-01T03:16:28.756Z,100989.66
2018-10-01T03:18:58.801Z,100988.83
2018-10-01T03:21:30.826Z,100989.05
2018-10-01T03:24:01.602Z,100990.80
2018-10-01T03:26:31.630Z,100987.90
2018-10-01T03:29:01.904Z,100979.03
2018-10-01T03:31:32.183Z,100980.67
2018-10-01T03:34:03.234Z,100974.72
2018-10-01T03:36:33.497Z,100977.32
2018-10-01T03:39:06.902Z,100975.13
2018-10-01T03:41:37.688Z,100969.55
2018-10-01T03:44:09.029Z,100970.62
2018-10-01T03:46:39.610Z,100966.20
2018-10-01T03:49:11.539Z,100966.59
2018-10-01T03:51:42.193Z,100965.36
2018-10-01T03:54:12.895Z,100963.28
2018-10-01T03:56:43.487Z,100961.91
2018-10-01T03:59:16.208Z,100959.25
2018-10-01T04:01:50.508Z,100960.76
2018-10-01T04:04:22.730Z,100966.27
2018-10-01T04:06:55.305Z,100955.23
2018-10-01T04:09:26.097Z,100960.33
2018-10-01T04:11:57.539Z,100955.14
2018-10-01T04:14:28.068Z,100956.97
2018-10-01T04:16:59.667Z,100954.05
2018-10-01T04:19:30.299Z,100957.92
2018-10-01T04:22:03.500Z,100954.78
2018-10-01T04:24:34.739Z,100956.13
2018-10-01T04:27:05.456Z,100961.00
2018-10-01T04:29:43.413Z,100958.22
2018-10-01T04:32:14.830Z,100960.27
2018-10-01T04:34:45.828Z,100960.67
2018-10-01T04:37:16.718Z,100958.63
2018-10-01T04:39:49.152Z,100963.67
2018-10-01T04:42:19.481Z,100959.83
2018-10-01T04:44:51.585Z,100965.04
2018-10-01T04:47:22.002Z,100964.53
2018-10-01T04:49:53.604Z,100965.13
2018-10-01T04:52:24.158Z,100974.00
2018-10-01T04:54:58.327Z,100975.02
2018-10-01T04:57:29.028Z,100980.78
2018-10-01T04:59:59.362Z,100981.94
2018-10-01T05:02:29.980Z,100977.58
2018-10-01T05:05:01.205Z,100973.59
2018-10-01T05:07:35.823Z,100977.75
2018-10-01T05:10:06.767Z,100978.27
2018-10-01T05:12:38.354Z,100987.48
2018-10-01T05:15:12.475Z,100985.03
2018-10-01T05:17:42.971Z,100985.70
2018-10-01T05:20:13.946Z,100992.70
2018-10-01T05:22:47.109Z,100997.39
2018-10-01T05:25:17.832Z,100997.09
2018-10-01T05:27:48.257Z,100994.97
2018-10-01T05:30:19.776Z,100993.89
2018-10-01T05:32:51.606Z,100997.91
2018-10-01T05:35:23.328Z,100991.95
2018-10-01T05:37:55.221Z,100998.32
2018-10-01T05:40:28.093Z,101002.68
2018-10-01T05:42:58.401Z,101003.48
2018-10-01T05:45:28.714Z,101008.16
2018-10-01T05:48:00.267Z,101010.85
2018-10-01T05:50:31.314Z,101013.27
2018-10-01T05:53:02.463Z,101016.56
2018-10-01T05:55:33.600Z,101018.28
2018-10-01T05:58:05.556Z,101023.30
2018-10-01T06:00:36.810Z,101013.80
2018-10-01T06:03:07.574Z,101025.83
2018-10-01T06:05:41.586Z,101025.11
2018-10-01T06:08:13.656Z,101026.17
2018-10-01T06:10:44.191Z,101021.03
2018-10-01T06:13:16.140Z,101028.86
2018-10-01T06:15:47.662Z,101030.55
2018-10-01T06:21:03.057Z,101028.00
2018-10-01T06:23:34.217Z,101024.93
2018-10-01T06:26:04.938Z,101028.09
2018-10-01T06:28:36.082Z,101035.72
2018-10-01T06:31:07.365Z,101025.80
2018-10-01T06:33:38.798Z,101022.85
2018-10-01T06:36:11.157Z,101020.66
2018-10-01T06:38:42.557Z,101021.56
2018-10-01T06:41:13.700Z,101023.27
2018-10-01T06:43:44.123Z,101024.67
2018-10-01T06:46:14.316Z,101031.03
2018-10-01T06:48:46.205Z,101029.94
2018-10-01T06:51:17.661Z,101028.15
2018-10-01T06:53:48.276Z,101024.51
2018-10-01T06:56:24.916Z,101029.80
2018-10-01T06:58:56.469Z,101026.30
2018-10-01T07:04:02.637Z,101034.20
2018-10-01T07:06:33.232Z,101033.95
2018-10-01T07:11:49.174Z,117636.41
2018-10-01T07:14:24.746Z,117636.41
2018-10-01T07:16:58.009Z,117636.41
2018-10-01T07:19:31.017Z,117636.41
2018-10-01T07:22:05.370Z,117636.41
2018-10-01T07:27:28.367Z,117636.41
2018-10-01T07:30:00.360Z,117636.41
2018-10-01T07:32:31.136Z,117636.41
2018-10-01T07:35:01.956Z,117636.41
2018-10-01T07:37:32.112Z,117636.41
2018-10-01T07:40:02.398Z,117636.41
2018-10-01T07:42:33.737Z,117636.41
2018-10-01T07:45:06.710Z,117636.41
2018-10-01T07:47:41.336Z,117636.41
2018-10-01T07:50:11.476Z,117636.41
2018-10-01T07:52:47.052Z,117636.41
2018-10-01T11:19:59.354Z,101135.34
2018-10-01T11:22:31.423Z,101132.52
2018-10-01T11:25:03.689Z,101147.64
2018-10-01T11:27:38.862Z,101143.16
2018-10-01T11:30:10.893Z,101148.16
2018-10-01T11:32:40.931Z,101156.46
2018-10-01T11:35:20.168Z,101165.63
2018-10-01T11:37:50.625Z,101154.14
2018-10-01T11:40:25.879Z,101139.23
2018-10-01T11:42:56.495Z,101147.39
2018-10-01T11:45:27.809Z,101148.55
2018-10-01T11:47:58.332Z,101146.73
2018-10-01T11:50:28.555Z,101155.20
2018-10-01T11:53:06.224Z,101155.45
2018-10-01T11:55:36.777Z,101142.61
2018-10-01T12:01:01.564Z,101131.83
2018-10-01T12:03:33.857Z,101147.05
2018-10-01T12:06:04.020Z,101146.11
2018-10-01T12:08:39.608Z,101146.64
2018-10-01T12:11:10.725Z,101144.05
2018-10-01T12:13:45.078Z,101142.84
2018-10-01T12:16:20.044Z,101139.83
2018-10-01T12:18:50.601Z,101144.34
2018-10-01T12:21:23.889Z,101142.53
2018-10-01T12:23:59.203Z,101148.47
2018-10-01T12:26:30.295Z,101133.03
2018-10-01T12:29:00.423Z,101133.92
2018-10-01T12:31:32.079Z,101135.45
2018-10-01T12:34:05.379Z,101131.30
2018-10-01T12:36:35.667Z,101131.61
2018-10-01T12:39:08.528Z,101130.77
2018-10-01T12:41:39.178Z,101127.52
2018-10-01T12:44:11.081Z,101138.66
2018-10-01T12:46:42.969Z,101130.53
2018-10-01T12:49:14.801Z,101134.63
2018-10-01T12:51:46.223Z,101132.98
2018-10-01T12:54:16.916Z,101137.88
2018-10-01T12:56:48.814Z,101141.98
2018-10-01T12:59:24.841Z,101145.63
2018-10-01T13:01:55.770Z,101141.13
2018-10-01T13:04:26.487Z,101135.53
2018-10-01T13:07:00.572Z,101142.17
2018-10-01T13:09:31.709Z,101137.97
2018-10-01T13:12:07.968Z,101140.02
2018-10-01T13:14:40.683Z,101138.04
2018-10-01T13:17:17.066Z,101140.10
2018-10-01T13:19:47.933Z,101145.73
2018-10-01T13:22:26.301Z,101152.02
2018-10-01T13:24:58.340Z,101157.91
2018-10-01T13:27:29.025Z,101159.97
2018-10-01T13:29:59.671Z,101162.78
2018-10-01T13:32:31.455Z,101157.32
2018-10-01T13:35:04.671Z,101156.58
2018-10-01T13:37:38.998Z,101160.91
2018-10-01T13:40:10.309Z,101162.29
2018-10-01T13:42:43.524Z,101158.45
2018-10-01T13:45:20.341Z,101158.47
2018-10-01T13:48:11.319Z,101160.52
2018-10-01T13:50:53.608Z,101160.65
2018-10-01T13:53:25.320Z,101161.67
2018-10-01T13:55:58.052Z,101157.31
2018-10-01T13:58:29.278Z,101164.58
2018-10-01T14:01:06.600Z,101155.45
2018-10-01T14:03:39.466Z,101149.44
2018-10-01T14:12:21.822Z,101147.39
2018-10-01T14:14:56.298Z,101145.82
2018-10-01T14:20:30.073Z,101138.05
2018-10-01T14:23:32.462Z,101142.70
2018-10-01T14:26:17.036Z,101142.06
2018-10-01T14:28:57.308Z,101135.49
2018-10-01T14:31:45.601Z,101142.45
2018-10-01T14:34:53.761Z,101141.08
2018-10-01T14:37:25.248Z,101141.92
2018-10-01T14:39:57.829Z,101142.52
2018-10-01T14:42:31.156Z,101141.52
2018-10-01T14:45:10.538Z,101144.77
2018-10-01T14:47:42.881Z,101145.27
2018-10-01T14:50:16.033Z,101150.55
2018-10-01T14:52:48.757Z,101147.70
2018-10-01T15:09:58.861Z,101165.98
2018-10-01T15:12:38.956Z,101163.34
2018-10-01T15:18:05.334Z,101176.27
2018-10-01T15:20:38.406Z,101174.66
2018-10-01T15:23:10.163Z,101176.34
2018-10-01T15:25:40.801Z,101170.77
2018-10-01T15:28:14.019Z,101183.39
2018-10-01T15:33:30.504Z,101192.30
2018-10-01T15:36:02.810Z,101190.02
2018-10-01T15:38:38.489Z,101187.02
2018-10-01T15:41:10.384Z,101194.68
2018-10-01T15:43:44.649Z,101191.48
2018-10-01T15:46:15.041Z,101198.10
2018-10-01T15:48:47.254Z,101205.94
2018-10-01T15:51:18.006Z,101206.14
2018-10-01T15:53:48.919Z,101215.31
2018-10-01T15:56:23.917Z,101219.86
2018-10-01T15:58:55.606Z,101230.03
2018-10-01T16:01:28.371Z,101227.06
2018-10-01T16:04:02.062Z,101234.75
2018-10-01T16:06:32.852Z,101236.87
2018-10-01T16:09:03.148Z,101252.08
2018-10-01T16:11:33.563Z,101244.03
2018-10-01T16:14:04.843Z,101242.47
2018-10-01T16:16:36.463Z,101248.09
2018-10-01T16:19:08.403Z,101245.97
2018-10-01T16:21:39.661Z,101252.68
2018-10-01T16:24:10.147Z,101256.49
2018-10-01T16:26:42.753Z,101260.73
2018-10-01T16:29:13.629Z,101255.72
2018-10-01T16:31:43.776Z,101271.88
2018-10-01T16:34:16.076Z,101265.75
2018-10-01T16:36:53.856Z,101284.37
2018-10-01T16:39:25.767Z,101283.38
2018-10-01T16:41:58.648Z,101290.59
2018-10-01T16:44:30.355Z,101297.31
2018-10-01T16:47:04.891Z,101296.87
2018-10-01T16:49:38.660Z,101292.95
2018-10-01T16:52:14.494Z,101291.52
2018-10-01T16:54:46.741Z,101289.28
2018-10-01T16:57:22.092Z,101286.67
2018-10-01T16:59:57.239Z,101290.34
2018-10-01T17:02:31.850Z,101288.82
2018-10-01T17:05:10.624Z,101285.03
2018-10-01T17:07:44.811Z,101290.73
2018-10-01T17:10:18.767Z,101295.08
2018-10-01T17:12:53.668Z,101291.59
2018-10-01T17:15:25.068Z,101302.83
2018-10-01T17:17:59.286Z,101301.48
2018-10-01T17:20:34.628Z,101305.77
2018-10-01T17:23:15.267Z,101314.50
2018-10-01T17:25:54.220Z,101316.53
2018-10-01T17:28:33.770Z,101326.84
2018-10-01T17:34:38.200Z,101340.23
2018-10-01T17:37:26.354Z,101342.09
2018-10-01T17:39:59.506Z,101331.50
2018-10-01T17:42:32.819Z,101338.61
2018-10-01T17:48:28.887Z,101341.67
2018-10-01T17:51:01.444Z,101348.84
2018-10-01T17:53:35.126Z,101345.97
2018-10-01T17:56:09.292Z,101348.19
2018-10-01T17:58:46.188Z,101345.37
2018-10-01T18:01:18.644Z,101348.42
2018-10-01T18:03:50.737Z,101356.02
2018-10-01T18:06:24.406Z,101354.70
2018-10-01T18:08:58.059Z,101359.69
2018-10-01T18:11:44.692Z,101362.30
2018-10-01T18:14:23.167Z,101353.04
2018-10-01T18:16:59.904Z,101356.65
2018-10-01T18:19:37.173Z,101351.72
2018-10-01T18:22:13.572Z,101354.51
2018-10-01T18:24:45.427Z,101357.34
2018-10-01T18:27:17.063Z,101357.10
2018-10-01T18:29:54.067Z,101356.77
2018-10-01T18:32:30.215Z,101361.50
2018-10-01T18:35:08.298Z,101350.78
2018-10-01T18:37:47.478Z,101357.23
2018-10-01T18:40:19.035Z,101364.09
2018-10-01T18:42:54.024Z,101364.95
2018-10-01T18:45:29.403Z,101367.02
2018-10-01T18:51:28.257Z,101372.30
2018-10-01T18:54:01.327Z,101374.59
2018-10-01T18:56:32.327Z,101374.73
2018-10-01T18:59:05.137Z,101368.66
2018-10-01T19:01:38.630Z,101372.48
2018-10-01T19:04:10.428Z,101375.58
2018-10-01T19:06:43.854Z,101374.48
2018-10-01T19:09:16.936Z,101371.28
2018-10-01T19:11:50.660Z,101386.88
2018-10-01T19:14:24.163Z,101379.36
2018-10-01T19:16:58.578Z,101384.47
2018-10-01T19:19:40.832Z,101384.59
2018-10-01T19:22:41.375Z,101387.81
2018-10-01T19:25:22.786Z,101384.94
2018-10-01T19:28:00.694Z,101382.09
2018-10-01T19:30:41.075Z,101386.11
2018-10-01T19:33:30.832Z,101397.95
2018-10-01T19:36:11.752Z,101395.58
2018-10-01T19:38:44.835Z,101398.97
2018-10-01T19:44:26.483Z,101404.12
2018-10-01T19:46:59.288Z,101408.38
2018-10-01T19:49:40.758Z,101408.68
2018-10-01T19:52:21.008Z,101415.70
2018-10-01T19:57:52.828Z,101414.36
2018-10-01T20:00:37.053Z,101409.02
2018-10-01T20:06:18.186Z,101414.34
2018-10-01T20:09:02.178Z,101420.30
2018-10-01T20:17:46.157Z,101422.20
2018-10-01T20:20:25.407Z,101424.09
2018-10-01T20:28:44.022Z,101433.66
2018-10-01T20:31:25.231Z,101431.06
2018-10-01T20:34:06.159Z,101428.45
2018-10-01T20:36:46.323Z,101434.45
2018-10-01T20:39:23.099Z,101424.45
2018-10-01T20:42:02.894Z,101431.66
2018-10-01T20:44:41.802Z,101434.06
2018-10-01T20:47:19.830Z,101428.62
2018-10-01T20:49:56.973Z,101433.39
2018-10-01T20:52:38.087Z,101429.20
2018-10-01T20:55:17.686Z,101424.08
2018-10-01T20:57:55.612Z,101429.85
2018-10-01T21:00:37.655Z,101422.04
2018-10-01T21:03:18.384Z,101414.71
2018-10-01T21:06:00.393Z,101426.11
2018-10-01T21:08:46.427Z,101426.69
2018-10-01T21:11:22.274Z,101424.13
2018-10-01T21:13:56.586Z,101420.12
2018-10-01T21:16:36.527Z,101421.29
2018-10-01T21:19:09.585Z,101430.16
2018-10-01T21:21:41.390Z,101423.64
2018-10-01T21:24:14.491Z,101423.21
2018-10-01T21:26:47.188Z,101422.25
2018-10-01T21:29:19.117Z,101426.00
2018-10-01T21:31:50.876Z,101419.95
2018-10-01T21:34:23.150Z,101427.48
2018-10-01T21:36:55.578Z,101421.98
2018-10-01T21:41:39.387Z,101433.16
2018-10-01T21:44:19.647Z,101429.69
2018-10-01T21:47:05.534Z,101430.92
2018-10-01T21:50:01.883Z,101435.98
2018-10-01T21:52:41.444Z,101435.03
2018-10-01T21:55:17.591Z,101432.98
2018-10-01T21:58:02.718Z,101433.63
2018-10-01T22:00:53.055Z,101435.09
2018-10-01T22:03:28.175Z,101430.12
2018-10-01T22:06:12.926Z,101432.15
2018-10-01T22:08:53.187Z,101432.67
2018-10-01T22:11:35.580Z,101423.64
2018-10-01T22:14:14.627Z,101428.56
2018-10-01T22:16:56.244Z,101430.70
2018-10-01T22:19:32.801Z,101429.63
2018-10-01T22:22:11.676Z,101432.52
2018-10-01T22:24:50.538Z,101434.65
2018-10-01T22:27:34.904Z,101432.94
2018-10-01T22:30:12.178Z,101434.88
2018-10-01T22:32:51.439Z,101429.67
2018-10-01T22:35:24.549Z,101430.37
2018-10-01T22:37:56.822Z,101432.94
2018-10-01T22:40:29.493Z,101434.13
2018-10-01T22:43:03.139Z,101433.22
2018-10-01T22:45:35.512Z,101431.41
2018-10-01T22:49:47.741Z,101439.14
2018-10-01T22:52:23.486Z,101434.91
2018-10-01T22:54:58.140Z,101437.36
2018-10-01T22:57:38.581Z,101434.41
2018-10-01T23:00:15.025Z,101431.16
2018-10-01T23:02:48.951Z,101428.31
2018-10-01T23:05:25.821Z,101429.87
2018-10-01T23:07:58.912Z,101426.70
2018-10-01T23:10:31.504Z,101420.61
2018-10-01T23:13:03.020Z,101433.47
2018-10-01T23:15:35.000Z,101428.31
2018-10-01T23:18:06.756Z,101416.63
2018-10-01T23:20:38.423Z,101427.88
2018-10-01T23:23:10.169Z,101424.05
2018-10-01T23:25:42.689Z,101424.48
2018-10-01T23:28:14.607Z,101415.86
2018-10-01T23:30:46.217Z,101416.19
2018-10-01T23:33:16.506Z,101411.60
2018-10-01T23:35:47.664Z,101413.27
2018-10-01T23:38:19.682Z,101418.78
2018-10-01T23:40:51.241Z,101417.23
2018-10-01T23:43:23.038Z,101419.58
2018-10-01T23:45:55.009Z,101409.80
2018-10-01T23:48:29.964Z,101413.80
2018-10-01T23:51:06.046Z,101417.13
2018-10-01T23:53:37.245Z,101412.53
2018-10-01T23:56:10.485Z,101418.30
2018-10-01T23:58:41.827Z,101423.13
